Time;durP1;ratioP1;P1;durP2;ratioP2;P2;SDS_P1;SDS_P2;PMS_P1;PMS_P2;Temp;Humidity;BMP_temperature;BMP_pressure;BME280_temperature;BME280_humidity;BME280_pressure;Samples;Min_cycle;Max_cycle;Signal;HPM_P1;HPM_P2
2022/10/13 05:35:03;;;;;;;;;14.50;10.50;;;;;14.45;76.83;101656.94;6248036;22;49829;-71
2022/10/13 05:37:28;;;;;;;;;13.50;13.50;;;;;14.30;76.67;101620.53;6290183;22;49651;-69
2022/10/13 05:39:54;;;;;;;;;7.50;7.00;;;;;14.67;76.60;101671.44;6268437;22;49692;-70
2022/10/13 05:42:19;;;;;;;;;11.75;11.75;;;;;14.71;76.41;101668.00;6270802;22;49646;-67
2022/10/13 05:44:44;;;;;;;;;12.75;12.75;;;;;13.70;76.57;101479.47;6266896;22;49827;-73
2022/10/13 05:47:10;;;;;;;;;11.50;9.00;;;;;14.70;76.31;101643.31;6265470;22;51783;-71
2022/10/13 05:49:38;;;;;;;;;10.75;8.25;;;;;14.68;76.61;101626.56;6266800;22;49691;-74
2022/10/13 05:52:09;;;;;;;;;8.50;8.50;;;;;14.71;76.14;101629.25;6267659;22;49678;-74
2022/10/13 05:54:47;;;;;;;;;13.75;9.00;;;;;14.48;75.90;101575.13;6265789;22;51226;-73
2022/10/13 05:57:23;;;;;;;;;12.50;10.75;;;;;14.45;75.97;101568.00;6265377;22;49613;-76
2022/10/13 06:00:03;;;;;;;;;8.75;8.75;;;;;14.77;76.12;101645.22;6265657;22;49517;-74
2022/10/13 06:02:36;;;;;;;;;11.50;10.00;;;;;14.91;75.78;101655.13;6265621;22;49883;-74
2022/10/13 06:05:05;;;;;;;;;7.00;7.00;;;;;14.96;75.74;101666.66;6264854;22;49643;-74
2022/10/13 06:07:31;;;;;;;;;9.25;9.25;;;;;14.67;75.62;101615.94;6265966;22;49625;-76
2022/10/13 06:09:57;;;;;;;;;12.50;11.00;;;;;14.39;74.93;101557.31;6266365;22;49639;-70
2022/10/13 06:12:22;;;;;;;;;10.75;8.50;;;;;14.79;74.98;101627.63;6263556;22;49994;-69
2022/10/13 06:14:49;;;;;;;;;10.75;10.50;;;;;14.98;74.64;101644.69;6262837;22;50110;-70
2022/10/13 06:17:14;;;;;;;;;5.50;5.50;;;;;14.96;74.38;101664.03;6255519;22;50024;-71
2022/10/13 06:19:41;;;;;;;;;9.25;9.25;;;;;15.07;74.72;101673.94;6258695;22;49835;-71
2022/10/13 06:22:07;;;;;;;;;7.00;7.00;;;;;15.03;74.12;101666.81;6260307;22;50197;-70
2022/10/13 06:24:32;;;;;;;;;5.75;5.75;;;;;14.98;73.67;101643.81;6259071;22;49946;-71
2022/10/13 06:26:58;;;;;;;;;9.00;8.25;;;;;15.02;73.68;101643.88;6259419;22;50158;-71
2022/10/13 06:29:23;;;;;;;;;7.00;7.00;;;;;14.97;73.80;101631.47;6260649;22;49799;-71
2022/10/13 06:31:49;;;;;;;;;8.00;8.00;;;;;14.55;72.81;101567.28;6259058;22;52183;-71
2022/10/13 06:34:14;;;;;;;;;10.75;8.50;;;;;14.86;73.08;101610.09;6259781;22;50848;-70
2022/10/13 06:36:40;;;;;;;;;7.75;7.00;;;;;15.10;72.58;101654.59;6258875;22;49587;-74
2022/10/13 06:39:06;;;;;;;;;8.00;7.50;;;;;15.03;72.45;101644.75;6259441;22;49797;-70
2022/10/13 06:41:32;;;;;;;;;6.50;6.50;;;;;15.12;72.52;101661.66;6285116;22;49724;-70
2022/10/13 06:43:57;;;;;;;;;5.50;5.50;;;;;15.08;72.60;101640.44;6266800;22;50706;-71
2022/10/13 06:46:22;;;;;;;;;9.00;6.75;;;;;15.12;71.76;101661.66;6266973;22;49510;-71
2022/10/13 06:48:49;;;;;;;;;3.50;3.00;;;;;15.09;72.46;101650.16;6267448;22;49702;-73
2022/10/13 06:51:15;;;;;;;;;6.25;6.25;;;;;15.13;72.13;101663.44;6267541;22;49649;-72
2022/10/13 06:53:40;;;;;;;;;9.00;7.75;;;;;14.75;72.10;101602.00;6266607;22;50872;-70
2022/10/13 06:56:07;;;;;;;;;6.50;5.25;;;;;15.04;71.81;101638.59;6267191;22;49724;-71
2022/10/13 06:58:34;;;;;;;;;11.50;8.50;;;;;15.01;71.84;101633.28;6265568;22;49698;-71
2022/10/13 07:00:59;;;;;;;;;10.00;7.25;;;;;15.22;71.76;101667.09;6267590;22;49982;-70
2022/10/13 07:03:25;;;;;;;;;6.75;6.25;;;;;14.94;71.88;101611.13;6266788;22;50393;-71
2022/10/13 07:05:50;;;;;;;;;11.75;9.50;;;;;14.60;71.58;101562.09;6267056;22;50327;-71
2022/10/13 07:08:15;;;;;;;;;9.00;9.00;;;;;15.34;71.74;101683.16;6267088;22;49722;-68
2022/10/13 07:10:41;;;;;;;;;10.25;10.00;;;;;14.93;71.64;101600.53;6267569;22;49548;-71
2022/10/13 07:13:06;;;;;;;;;9.25;6.00;;;;;14.60;71.69;101544.50;6266740;22;50000;-68
2022/10/13 07:15:32;;;;;;;;;6.25;6.25;;;;;15.35;72.18;101671.75;6267227;22;49608;-70
2022/10/13 07:17:58;;;;;;;;;8.00;7.00;;;;;15.20;71.50;101643.28;6267330;22;49741;-69
2022/10/13 07:20:23;;;;;;;;;7.00;7.00;;;;;15.32;72.27;101669.03;6267372;22;50009;-68
2022/10/13 07:22:52;;;;;;;;;10.50;8.00;;;;;15.22;72.36;101657.41;6266826;22;49616;-69
2022/10/13 07:25:18;;;;;;;;;7.75;7.00;;;;;15.39;73.74;101684.16;6267157;22;49765;-69
2022/10/13 07:27:43;;;;;;;;;8.75;7.25;;;;;15.38;74.81;101685.00;6267627;22;49834;-70
2022/10/13 07:30:10;;;;;;;;;8.75;7.00;;;;;15.34;74.51;101684.06;6267185;22;49683;-69
2022/10/13 07:32:35;;;;;;;;;6.25;6.00;;;;;15.29;75.71;101685.75;6264710;22;52156;-69
2022/10/13 07:35:02;;;;;;;;;7.50;7.50;;;;;15.19;76.03;101673.25;6266878;22;49702;-69
2022/10/13 07:37:27;;;;;;;;;8.75;7.75;;;;;15.22;76.47;101682.97;6266939;22;50030;-70
2022/10/13 07:39:53;;;;;;;;;9.00;7.50;;;;;15.36;77.17;101695.59;6267338;22;49937;-69
2022/10/13 07:42:18;;;;;;;;;10.00;7.75;;;;;15.34;76.04;101684.06;6266924;22;51215;-69
2022/10/13 07:44:43;;;;;;;;;6.50;6.50;;;;;14.36;74.95;101514.09;6266993;22;49751;-69
2022/10/13 07:47:09;;;;;;;;;10.00;9.00;;;;;14.34;75.87;101514.06;6266810;22;49627;-69
2022/10/13 07:49:35;;;;;;;;;9.25;8.25;;;;;15.24;77.04;101660.09;6265600;22;50170;-70
2022/10/13 07:52:00;;;;;;;;;10.25;8.25;;;;;15.23;76.22;101653.91;6266994;22;49798;-69
2022/10/13 07:54:26;;;;;;;;;12.00;8.25;;;;;15.51;75.58;101696.66;6264822;22;49807;-70
2022/10/13 07:56:52;;;;;;;;;8.00;7.25;;;;;15.49;75.84;101685.19;6267086;22;49777;-69
2022/10/13 07:59:18;;;;;;;;;8.00;6.75;;;;;15.52;74.83;101694.03;6266849;22;49573;-70
2022/10/13 08:01:43;;;;;;;;;9.25;9.00;;;;;15.57;75.39;101707.38;6266909;22;49933;-69
2022/10/13 08:04:09;;;;;;;;;12.25;9.75;;;;;15.51;75.09;101691.38;6266457;22;49698;-71
2022/10/13 08:06:34;;;;;;;;;9.00;7.50;;;;;15.59;74.63;101708.28;6266945;22;50201;-70
2022/10/13 08:09:00;;;;;;;;;7.75;7.00;;;;;15.36;75.25;101662.94;6267325;22;49833;-70
2022/10/13 08:11:26;;;;;;;;;9.75;8.75;;;;;15.68;74.19;101721.69;6266615;22;50416;-69
2022/10/13 08:13:54;;;;;;;;;9.50;8.00;;;;;15.49;74.30;101703.69;6266908;22;49745;-71
2022/10/13 08:16:20;;;;;;;;;5.00;5.00;;;;;15.69;74.16;101707.56;6266952;22;49719;-69
2022/10/13 08:18:47;;;;;;;;;8.75;7.50;;;;;15.04;73.93;101609.50;6267092;22;49814;-72
2022/10/13 08:21:16;;;;;;;;;7.50;5.75;;;;;15.71;73.85;101709.38;6267004;22;50548;-70
2022/10/13 08:23:42;;;;;;;;;9.00;6.50;;;;;14.70;73.22;101536.72;6266990;22;50015;-71
2022/10/13 08:26:14;;;;;;;;;8.50;6.50;;;;;15.30;73.63;101621.41;6266525;22;49672;-70
2022/10/13 08:28:39;;;;;;;;;6.75;6.75;;;;;15.48;73.36;101636.66;6266824;22;49966;-68
2022/10/13 08:31:05;;;;;;;;;9.50;7.50;;;;;15.96;73.54;101709.72;6266600;22;50374;-71
2022/10/13 08:33:30;;;;;;;;;6.00;6.00;;;;;15.81;73.73;101668.03;6266630;22;49691;-71
2022/10/13 08:35:56;;;;;;;;;7.00;5.75;;;;;15.66;72.96;101609.59;6266274;22;49660;-70
2022/10/13 08:38:21;;;;;;;;;6.25;5.50;;;;;15.84;71.26;101616.91;6265951;22;49917;-70
2022/10/13 08:40:49;;;;;;;;;7.50;6.25;;;;;16.47;70.93;101703.31;6265861;22;50979;-69
2022/10/13 08:43:17;;;;;;;;;9.00;7.00;;;;;16.36;70.70;101665.19;6290509;22;49741;-69
2022/10/13 08:45:43;;;;;;;;;5.25;4.00;;;;;16.78;70.64;101715.16;6266676;22;49859;-70
2022/10/13 08:48:18;;;;;;;;;7.25;4.50;;;;;16.82;69.98;101701.09;6266747;22;49570;-69
2022/10/13 08:50:49;;;;;;;;;8.25;7.00;;;;;16.69;69.26;101659.38;6266819;22;50611;-70
2022/10/13 08:53:27;;;;;;;;;4.00;4.00;;;;;16.68;69.08;101642.59;6266585;22;49736;-70
2022/10/13 08:56:19;;;;;;;;;6.75;6.50;;;;;16.49;68.72;101599.09;6266300;22;49802;-70
2022/10/13 08:58:45;;;;;;;;;5.50;4.50;;;;;16.69;69.30;101617.84;6265956;22;49665;-70
2022/10/13 09:01:23;;;;;;;;;4.00;4.00;;;;;17.27;68.24;101697.06;6265905;22;51040;-71
2022/10/13 09:03:53;;;;;;;;;4.25;4.00;;;;;17.42;67.57;101699.84;6266583;22;49627;-70
2022/10/13 09:06:30;;;;;;;;;5.50;5.50;;;;;17.48;67.45;101685.75;6266243;22;49494;-70
2022/10/13 09:08:57;;;;;;;;;5.25;4.25;;;;;17.58;66.68;101690.25;6267061;22;50118;-70
2022/10/13 09:11:31;;;;;;;;;3.50;3.50;;;;;17.41;65.93;101659.13;6266851;22;49904;-70
2022/10/13 09:13:59;;;;;;;;;4.75;4.75;;;;;17.66;66.25;101696.47;6266442;22;49628;-70
2022/10/13 09:16:28;;;;;;;;;6.00;4.25;;;;;17.55;66.40;101680.47;6265834;22;49859;-70
2022/10/13 09:18:53;;;;;;;;;5.50;4.75;;;;;17.72;65.86;101697.44;6266772;22;49619;-70
2022/10/13 09:21:22;;;;;;;;;5.50;3.50;;;;;17.76;65.43;101697.44;6266313;22;50932;-70
2022/10/13 09:23:50;;;;;;;;;6.25;6.25;;;;;17.53;65.68;101650.38;6266500;22;49777;-71
2022/10/13 09:26:24;;;;;;;;;6.25;5.75;;;;;17.58;65.01;101650.41;6290622;22;49744;-69
2022/10/13 09:28:51;;;;;;;;;4.00;2.50;;;;;17.83;65.30;101697.50;6266564;22;49619;-70
2022/10/13 09:31:25;;;;;;;;;3.75;3.75;;;;;17.81;65.01;101693.94;6265522;22;50969;-71
2022/10/13 09:34:13;;;;;;;;;4.50;4.00;;;;;17.76;64.78;101670.88;6265366;22;49797;-72
2022/10/13 09:37:02;;;;;;;;;7.75;5.00;;;;;17.84;65.08;101686.00;6266063;22;49451;-70
2022/10/13 09:39:28;;;;;;;;;1.75;1.75;;;;;17.90;64.39;101685.16;6265761;22;49577;-70
2022/10/13 09:42:19;;;;;;;;;3.00;3.00;;;;;17.99;64.71;101671.91;6266366;22;49640;-69
2022/10/13 09:44:45;;;;;;;;;4.25;4.25;;;;;18.03;63.79;101679.88;6266352;22;49924;-69
2022/10/13 09:47:19;;;;;;;;;4.00;4.00;;;;;17.70;64.51;101622.19;6266440;22;49706;-69
2022/10/13 09:49:45;;;;;;;;;5.00;3.50;;;;;18.17;64.77;101679.97;6264309;22;49896;-69
2022/10/13 09:52:13;;;;;;;;;5.50;3.00;;;;;18.24;63.76;101679.13;6266344;22;49892;-69
2022/10/13 09:54:47;;;;;;;;;5.75;4.00;;;;;18.22;63.71;101683.50;6267123;22;49759;-71
2022/10/13 09:57:25;;;;;;;;;4.00;4.00;;;;;17.76;63.38;101631.03;6267386;22;49639;-69
2022/10/13 10:00:12;;;;;;;;;4.50;3.75;;;;;18.00;64.25;101660.41;6267538;22;49884;-70
2022/10/13 10:02:47;;;;;;;;;7.00;5.00;;;;;17.70;63.55;101608.91;6267733;22;49744;-71
2022/10/13 10:05:22;;;;;;;;;4.25;4.25;;;;;17.72;63.92;101614.22;6267568;22;49970;-74
2022/10/13 10:07:48;;;;;;;;;3.50;3.50;;;;;17.96;64.15;101642.69;6267610;22;49823;-72
2022/10/13 10:10:33;;;;;;;;;6.00;3.25;;;;;18.36;63.47;101680.94;6268060;22;49853;-73
2022/10/13 10:13:00;;;;;;;;;7.00;6.25;;;;;17.61;63.95;101539.78;6267492;22;50623;-76
2022/10/13 10:15:40;;;;;;;;;5.00;5.00;;;;;18.42;63.52;101658.78;6266664;22;49638;-73
2022/10/13 10:18:13;;;;;;;;;10.25;5.00;;;;;18.52;62.85;101665.88;6267299;22;49572;-73
2022/10/13 10:21:03;;;;;;;;;6.50;5.00;;;;;18.66;63.25;101685.47;6267699;22;49686;-73
2022/10/13 10:24:00;;;;;;;;;5.75;3.75;;;;;18.70;62.83;101683.69;6267093;22;50700;-74
2022/10/13 10:26:37;;;;;;;;;8.00;6.00;;;;;18.30;62.39;101598.50;6241372;22;49563;-73
2022/10/13 10:29:11;;;;;;;;;5.00;5.00;;;;;18.73;62.56;101644.72;6267669;22;49752;-74
2022/10/13 10:31:49;;;;;;;;;4.00;3.75;;;;;18.75;62.48;101644.72;6267572;22;49928;-75
2022/10/13 10:34:41;;;;;;;;;4.25;4.25;;;;;19.12;61.77;101672.22;6267127;22;50923;-73
2022/10/13 10:37:44;;;;;;;;;6.25;5.50;;;;;19.16;61.74;101660.69;6266595;22;49621;-73
2022/10/13 10:40:28;;;;;;;;;7.00;5.25;;;;;19.28;61.69;101659.78;6267399;22;49595;-74
2022/10/13 10:43:02;;;;;;;;;3.75;3.75;;;;;19.24;61.01;101658.03;6267175;22;49620;-73
2022/10/13 10:45:34;;;;;;;;;4.25;3.00;;;;;18.83;61.23;101582.66;6267527;22;50549;-73
2022/10/13 10:48:05;;;;;;;;;4.00;4.00;;;;;18.73;60.81;101570.25;6268044;22;49854;-73
2022/10/13 10:50:33;;;;;;;;;5.50;5.50;;;;;18.85;61.04;101590.63;6266774;22;49701;-74
2022/10/13 10:53:08;;;;;;;;;3.00;3.00;;;;;19.16;61.19;101639.41;6267275;22;49831;-72
2022/10/13 10:55:54;;;;;;;;;5.00;5.00;;;;;18.42;61.21;101529.38;6266521;22;50468;-73
2022/10/13 10:58:19;;;;;;;;;6.00;5.00;;;;;19.13;61.11;101658.91;6267003;22;49739;-74
2022/10/13 11:00:57;;;;;;;;;6.00;5.00;;;;;18.48;61.70;101560.44;6267068;22;49735;-73
2022/10/13 11:03:47;;;;;;;;;4.00;4.00;;;;;18.94;61.97;101661.59;6267161;22;49754;-73
2022/10/13 11:06:15;;;;;;;;;5.00;5.00;;;;;18.91;61.99;101651.78;6266698;22;49715;-73
2022/10/13 11:08:42;;;;;;;;;5.50;4.75;;;;;18.34;62.11;101554.22;6266427;22;49720;-74
2022/10/13 11:11:22;;;;;;;;;6.50;5.25;;;;;18.88;62.65;101654.47;6266764;22;49907;-73
2022/10/13 11:14:21;;;;;;;;;9.75;6.00;;;;;18.47;62.87;101585.25;6267891;22;49739;-73
2022/10/13 11:17:05;;;;;;;;;4.25;4.00;;;;;18.84;62.65;101645.59;6249477;22;49942;-74
2022/10/13 11:19:30;;;;;;;;;4.25;4.25;;;;;18.86;62.64;101645.59;6265098;22;49664;-74
2022/10/13 11:21:56;;;;;;;;;4.50;4.50;;;;;18.91;62.59;101640.28;6267352;22;49744;-75
2022/10/13 11:24:40;;;;;;;;;3.50;3.50;;;;;18.88;62.98;101639.38;6267463;22;49628;-75
2022/10/13 11:27:11;;;;;;;;;1.00;1.00;;;;;18.84;64.22;101655.38;6267408;22;50632;-74
2022/10/13 11:29:42;;;;;;;;;6.00;4.25;;;;;18.80;65.11;101641.16;6266855;22;49639;-74
2022/10/13 11:32:40;;;;;;;;;5.75;5.75;;;;;18.50;66.34;101595.88;6267280;22;49689;-73
2022/10/13 11:35:08;;;;;;;;;6.00;4.25;;;;;18.71;66.44;101630.50;6267085;22;49827;-72
2022/10/13 11:38:07;;;;;;;;;6.00;5.00;;;;;18.63;67.19;101639.34;6267326;22;50295;-74
2022/10/13 11:40:57;;;;;;;;;4.50;4.50;;;;;18.24;68.40;101599.38;6267493;22;49650;-73
2022/10/13 11:43:25;;;;;;;;;4.75;4.75;;;;;18.42;68.97;101640.16;6266447;22;49743;-73
2022/10/13 11:45:50;;;;;;;;;6.25;6.25;;;;;18.35;70.51;101641.06;6266682;22;49813;-72
2022/10/13 11:48:41;;;;;;;;;8.00;6.00;;;;;18.28;70.56;101635.72;6266910;22;50073;-74
2022/10/13 11:51:45;;;;;;;;;7.00;7.00;;;;;18.31;71.01;101632.16;6267846;22;49568;-72
2022/10/13 11:54:28;;;;;;;;;5.25;4.50;;;;;18.39;71.09;101627.75;6267771;22;49692;-73
2022/10/13 11:56:57;;;;;;;;;7.75;7.75;;;;;17.97;71.40;101547.06;6268144;22;49886;-73
2022/10/13 11:59:32;;;;;;;;;8.50;7.25;;;;;17.28;71.75;101425.53;6266937;22;49542;-72
2022/10/13 12:02:08;;;;;;;;;9.25;8.50;;;;;18.37;72.15;101618.91;6267617;22;49724;-73
2022/10/13 12:04:33;;;;;;;;;9.75;6.25;;;;;17.78;72.50;101505.38;6262811;22;49672;-73
2022/10/13 12:07:02;;;;;;;;;7.50;7.25;;;;;18.45;72.81;101601.19;6292211;22;49990;-73
2022/10/13 12:09:30;;;;;;;;;11.00;11.00;;;;;18.49;73.24;101600.31;6267864;22;49595;-73
2022/10/13 12:12:14;;;;;;;;;8.25;8.25;;;;;18.20;72.39;101548.88;6268165;22;49787;-72
2022/10/13 12:14:46;;;;;;;;;9.25;9.25;;;;;18.39;73.12;101587.00;6265660;22;49756;-72
2022/10/13 12:17:37;;;;;;;;;10.00;9.00;;;;;18.41;72.82;101594.09;6267671;22;49814;-73
2022/10/13 12:20:18;;;;;;;;;8.25;7.75;;;;;17.80;72.48;101519.53;6267200;22;50064;-73
2022/10/13 12:22:47;;;;;;;;;8.00;6.75;;;;;18.35;73.21;101619.78;6267665;22;49866;-73
2022/10/13 12:25:18;;;;;;;;;11.00;10.00;;;;;18.30;73.99;101595.84;6267475;22;49770;-72
2022/10/13 12:27:49;;;;;;;;;9.00;9.00;;;;;17.57;73.30;101478.72;6267351;22;49817;-73
2022/10/13 12:30:24;;;;;;;;;10.25;9.00;;;;;17.30;73.42;101459.16;6266974;22;50561;-73
2022/10/13 12:32:54;;;;;;;;;7.25;7.25;;;;;17.33;74.43;101469.78;6266568;22;49786;-73
2022/10/13 12:35:28;;;;;;;;;7.75;7.75;;;;;18.09;74.74;101601.09;6266818;22;49549;-73
2022/10/13 12:37:54;;;;;;;;;9.00;8.00;;;;;17.52;74.24;101521.16;6267693;22;49991;-73
2022/10/13 12:40:20;;;;;;;;;9.00;7.00;;;;;17.84;74.98;101577.09;6266761;22;49873;-73
2022/10/13 12:42:47;;;;;;;;;9.50;8.25;;;;;17.24;75.61;101476.81;6266968;22;49894;-72
2022/10/13 12:45:16;;;;;;;;;5.75;5.75;;;;;17.88;75.13;101562.94;6267196;22;49748;-72
2022/10/13 12:47:44;;;;;;;;;8.25;8.25;;;;;18.07;75.02;101595.78;6267737;22;49612;-72
2022/10/13 12:50:35;;;;;;;;;9.50;7.25;;;;;17.97;74.88;101591.31;6267090;22;50845;-72
2022/10/13 12:53:11;;;;;;;;;7.25;6.25;;;;;17.60;75.53;101530.06;6267504;22;49873;-72
2022/10/13 12:55:46;;;;;;;;;6.50;6.50;;;;;18.00;75.75;101593.97;6267420;22;49565;-74
2022/10/13 12:58:23;;;;;;;;;7.00;7.00;;;;;17.69;76.06;101538.09;6271394;22;49623;-76
2022/10/13 13:01:08;;;;;;;;;7.75;7.00;;;;;18.02;75.73;101592.22;6277953;22;49520;-73
2022/10/13 13:03:36;;;;;;;;;8.75;7.50;;;;;18.02;76.46;101576.28;6278411;22;49258;-77
2022/10/13 13:06:22;;;;;;;;;2.75;2.75;;;;;17.03;76.07;101413.91;6278661;22;49470;-73
2022/10/13 13:09:06;;;;;;;;;5.75;5.75;;;;;18.06;76.43;101586.03;6275506;22;49745;-76
2022/10/13 13:11:37;;;;;;;;;8.50;7.25;;;;;18.07;76.38;101585.16;6274305;22;50947;-79
2022/10/13 13:14:46;;;;;;;;;10.00;7.75;;;;;17.86;76.60;101551.44;6275253;22;49269;-70
2022/10/13 13:17:21;;;;;;;;;4.25;4.25;;;;;18.08;76.22;101570.09;6181979;23;49507;-71
2022/10/13 13:19:49;;;;;;;;;7.50;7.00;;;;;17.89;76.47;101542.59;6183772;23;49501;-73
2022/10/13 13:22:15;;;;;;;;;5.25;5.00;;;;;17.11;76.06;101418.38;6235838;22;51739;-73
2022/10/13 13:24:41;;;;;;;;;5.75;4.75;;;;;17.56;76.68;101488.44;6277366;22;49595;-73
2022/10/13 13:27:14;;;;;;;;;6.75;5.75;;;;;17.17;76.74;101420.16;6276930;22;49418;-72
2022/10/13 13:29:40;;;;;;;;;6.00;6.00;;;;;17.04;75.93;101383.84;6276942;22;49439;-73
2022/10/13 13:32:05;;;;;;;;;5.50;3.50;;;;;18.16;75.88;101565.69;6276040;22;52258;-73
2022/10/13 13:34:30;;;;;;;;;4.25;3.25;;;;;17.95;75.55;101508.97;6276747;22;50476;-72
2022/10/13 13:36:56;;;;;;;;;5.00;5.00;;;;;17.54;76.13;101450.38;6275301;22;49496;-73
2022/10/13 13:39:21;;;;;;;;;6.00;4.25;;;;;17.27;75.52;101378.63;6301335;22;49579;-73
2022/10/13 13:41:46;;;;;;;;;3.25;3.00;;;;;18.24;74.74;101537.38;6277103;22;49639;-72
2022/10/13 13:44:12;;;;;;;;;7.00;5.00;;;;;17.70;75.02;101449.59;6276815;22;49252;-72
2022/10/13 13:46:37;;;;;;;;;2.00;2.00;;;;;18.24;75.82;101550.66;6277805;22;49406;-72
2022/10/13 13:49:03;;;;;;;;;5.75;4.25;;;;;18.18;75.91;101543.56;6277443;22;49404;-72
2022/10/13 13:51:28;;;;;;;;;5.00;4.00;;;;;18.09;75.25;101521.38;6278060;22;50291;-71
2022/10/13 13:53:53;;;;;;;;;5.75;5.75;;;;;17.29;75.49;101398.13;6277725;22;52370;-72
2022/10/13 13:56:19;;;;;;;;;5.00;4.50;;;;;17.47;74.76;101451.25;6277157;22;49492;-72
2022/10/13 13:58:45;;;;;;;;;5.50;5.50;;;;;17.96;75.21;101539.06;6278477;22;49763;-74
2022/10/13 14:01:12;;;;;;;;;6.00;4.50;;;;;17.30;75.76;101459.16;6276870;22;50560;-73
2022/10/13 14:03:38;;;;;;;;;5.75;5.75;;;;;17.25;76.11;101458.22;6278294;22;49430;-72
2022/10/13 14:06:04;;;;;;;;;4.75;4.75;;;;;17.37;77.17;101468.00;6277290;22;49497;-71
2022/10/13 14:08:31;;;;;;;;;3.00;3.00;;;;;17.52;77.07;101491.09;6278083;22;49319;-72
2022/10/13 14:10:56;;;;;;;;;6.25;6.00;;;;;17.72;76.23;101526.59;6276475;22;49675;-72
2022/10/13 14:13:22;;;;;;;;;5.50;4.75;;;;;17.66;76.69;101532.75;6276152;22;49376;-75
2022/10/13 14:15:58;;;;;;;;;4.00;4.00;;;;;17.26;77.20;101451.16;6277481;22;49446;-72
2022/10/13 14:18:24;;;;;;;;;7.00;7.00;;;;;17.70;77.85;101523.06;6277844;22;49560;-73
2022/10/13 14:20:49;;;;;;;;;4.75;4.00;;;;;17.56;77.80;101512.31;6275736;22;50070;-72
2022/10/13 14:23:15;;;;;;;;;7.50;7.00;;;;;17.61;77.78;101523.88;6276818;22;49513;-72
2022/10/13 14:25:40;;;;;;;;;9.50;8.00;;;;;16.77;77.88;101379.31;6276557;22;49174;-74
2022/10/13 14:28:05;;;;;;;;;5.25;5.25;;;;;17.45;77.28;101504.31;6277302;22;49298;-74
2022/10/13 14:30:31;;;;;;;;;5.25;5.25;;;;;17.08;77.99;101436.03;6276406;22;49314;-75
2022/10/13 14:32:56;;;;;;;;;6.50;6.00;;;;;17.57;77.91;101523.84;6276198;22;49463;-75
2022/10/13 14:35:22;;;;;;;;;7.75;7.00;;;;;17.56;78.16;101514.97;6275868;22;49665;-75
2022/10/13 14:37:48;;;;;;;;;6.50;6.50;;;;;17.07;77.93;101452.81;6276342;22;49411;-75
2022/10/13 14:40:14;;;;;;;;;6.00;5.75;;;;;17.37;78.24;101507.81;6276991;22;49698;-75
2022/10/13 14:42:41;;;;;;;;;8.25;8.25;;;;;17.49;78.77;101518.50;6276271;22;49424;-74
2022/10/13 14:45:07;;;;;;;;;6.50;5.75;;;;;16.99;77.94;101425.41;6277843;22;49271;-75
2022/10/13 14:47:32;;;;;;;;;7.50;5.50;;;;;16.70;78.02;101382.81;6279497;22;49365;-75
2022/10/13 14:50:00;;;;;;;;;7.00;6.00;;;;;17.45;78.47;101503.44;6278120;22;50355;-75
2022/10/13 14:52:25;;;;;;;;;5.75;5.75;;;;;16.73;77.55;101396.09;6278362;22;49494;-76
2022/10/13 14:54:50;;;;;;;;;8.00;8.00;;;;;17.41;78.20;101509.63;6278552;22;49500;-78
2022/10/13 14:57:16;;;;;;;;;9.00;8.00;;;;;17.40;78.38;101505.19;6277696;22;49601;-77
2022/10/13 14:59:42;;;;;;;;;6.00;6.00;;;;;17.34;78.18;101503.38;6278333;22;49789;-76
2022/10/13 15:02:09;;;;;;;;;8.00;7.00;;;;;17.34;78.80;101511.34;6277763;22;49602;-77
2022/10/13 15:04:34;;;;;;;;;7.00;7.00;;;;;17.28;78.69;101499.84;6278312;22;49443;-75
2022/10/13 15:07:00;;;;;;;;;9.50;8.25;;;;;17.29;79.09;101510.47;6277801;22;49825;-76
2022/10/13 15:09:25;;;;;;;;;8.25;7.50;;;;;17.08;78.91;101468.78;6278223;22;49802;-76
2022/10/13 15:11:51;;;;;;;;;7.00;7.00;;;;;17.03;79.62;101461.66;6279189;22;49550;-73
2022/10/13 15:14:16;;;;;;;;;5.50;5.00;;;;;17.18;79.21;101485.63;6279345;22;49404;-73
2022/10/13 15:16:41;;;;;;;;;7.75;7.75;;;;;16.31;79.09;101349.88;6277332;22;49332;-74
2022/10/13 15:19:07;;;;;;;;;5.50;5.50;;;;;16.21;79.33;101321.50;6243069;22;51794;-73
2022/10/13 15:21:32;;;;;;;;;7.00;4.00;;;;;17.04;78.93;101474.03;6268886;22;49696;-74
2022/10/13 15:23:58;;;;;;;;;7.00;5.00;;;;;17.21;78.88;101493.59;6269106;22;49624;-74
2022/10/13 15:26:23;;;;;;;;;8.25;7.00;;;;;16.60;78.86;101395.09;6279473;22;49491;-75
2022/10/13 15:28:50;;;;;;;;;6.25;6.25;;;;;16.73;79.10;101398.75;6279239;22;50324;-74
2022/10/13 15:31:18;;;;;;;;;8.00;8.00;;;;;16.69;79.12;101389.84;6271834;22;49489;-77
2022/10/13 15:33:52;;;;;;;;;6.50;6.25;;;;;17.28;79.69;101481.25;6271074;22;49860;-73
2022/10/13 15:36:19;;;;;;;;;6.75;6.00;;;;;16.40;78.83;101334.00;6272867;22;49959;-73
2022/10/13 15:38:45;;;;;;;;;9.00;7.25;;;;;17.23;79.67;101493.59;6279345;22;49346;-75
2022/10/13 15:41:11;;;;;;;;;7.00;7.00;;;;;17.22;79.68;101478.56;6279434;22;49464;-74
2022/10/13 15:43:36;;;;;;;;;6.50;6.50;;;;;17.06;79.98;101453.72;6279004;22;49292;-75
2022/10/13 15:46:04;;;;;;;;;6.00;6.00;;;;;16.68;80.12;101388.09;6278993;22;49347;-74
2022/10/13 15:48:30;;;;;;;;;12.00;9.00;;;;;16.43;79.99;101370.25;6277606;22;52049;-74
2022/10/13 15:50:56;;;;;;;;;8.00;8.00;;;;;16.46;81.12;101384.41;6278637;22;49318;-76
2022/10/13 15:53:21;;;;;;;;;9.75;7.25;;;;;17.12;80.96;101481.16;6278461;22;49444;-72
2022/10/13 15:55:47;;;;;;;;;8.00;7.75;;;;;17.11;80.94;101482.06;6279967;22;49148;-75
2022/10/13 15:58:13;;;;;;;;;9.25;8.00;;;;;16.50;81.29;101393.25;6277773;22;51778;-77
2022/10/13 16:00:38;;;;;;;;;8.50;7.75;;;;;16.94;81.33;101461.59;6279260;22;49364;-75
2022/10/13 16:03:04;;;;;;;;;9.75;8.00;;;;;17.02;81.40;101467.84;6279562;22;49294;-72
2022/10/13 16:05:30;;;;;;;;;8.25;8.00;;;;;17.01;81.56;101460.78;6270647;22;49459;-75
2022/10/13 16:07:55;;;;;;;;;9.00;9.00;;;;;16.58;81.53;101386.22;6274873;22;49996;-74
2022/10/13 16:10:20;;;;;;;;;8.00;8.00;;;;;16.05;81.97;101295.81;6277965;22;49289;-71
2022/10/13 16:12:46;;;;;;;;;9.50;8.75;;;;;16.46;81.34;101360.53;6273028;22;51988;-73
2022/10/13 16:15:11;;;;;;;;;7.00;7.00;;;;;16.98;81.61;101450.13;6269118;22;49830;-76
2022/10/13 16:17:37;;;;;;;;;8.25;8.25;;;;;17.01;81.71;101453.69;6268569;22;49777;-77
2022/10/13 16:20:08;;;;;;;;;10.75;7.00;;;;;16.99;81.99;101466.06;6272483;22;49610;-80
2022/10/13 16:22:33;;;;;;;;;12.00;7.25;;;;;16.13;81.60;101315.31;6277961;22;49341;-80
2022/10/13 16:24:58;;;;;;;;;7.00;6.75;;;;;15.97;81.80;101295.75;6271258;22;49626;-78
2022/10/13 16:27:24;;;;;;;;;5.50;5.50;;;;;16.00;82.53;101309.91;6269631;22;49470;-79
2022/10/13 16:29:49;;;;;;;;;8.75;7.00;;;;;16.83;82.31;101457.13;6264958;22;49778;-78
2022/10/13 16:32:14;;;;;;;;;7.75;7.75;;;;;16.64;82.38;101420.75;6265913;22;49824;-79
2022/10/13 16:34:40;;;;;;;;;6.50;6.50;;;;;16.78;82.95;101458.84;6266465;22;49522;-78
2022/10/13 16:37:05;;;;;;;;;7.00;7.00;;;;;15.71;82.50;101266.44;6264288;22;51914;-78
2022/10/13 16:39:31;;;;;;;;;8.00;7.00;;;;;15.68;82.69;101277.00;6266980;22;49643;-79
2022/10/13 16:41:56;;;;;;;;;8.00;7.00;;;;;16.70;82.59;101454.41;6267189;22;50060;-80
2022/10/13 16:44:22;;;;;;;;;6.25;6.25;;;;;16.68;83.30;101459.66;6264910;22;49576;-80
2022/10/13 16:46:48;;;;;;;;;8.50;8.50;;;;;16.68;83.40;101450.78;6266703;22;50495;-78
2022/10/13 16:49:16;;;;;;;;;10.00;10.00;;;;;15.81;83.27;101292.09;6265795;22;49849;-79
2022/10/13 16:51:42;;;;;;;;;8.25;8.25;;;;;15.41;83.19;101224.69;6265182;22;49556;-79
2022/10/13 16:54:07;;;;;;;;;11.75;10.25;;;;;16.64;83.56;101456.97;6265868;22;49791;-78
2022/10/13 16:56:33;;;;;;;;;9.75;8.75;;;;;16.41;83.56;101396.75;6290082;22;51370;-79
2022/10/13 16:59:01;;;;;;;;;9.00;8.50;;;;;16.65;83.48;101448.13;6266776;22;49561;-79
2022/10/13 17:01:28;;;;;;;;;10.00;9.50;;;;;16.63;83.24;101445.47;6265206;22;49673;-78
2022/10/13 17:03:58;;;;;;;;;11.00;9.00;;;;;16.64;83.75;101446.38;6265956;22;49698;-79
2022/10/13 17:06:26;;;;;;;;;8.75;8.75;;;;;16.60;83.47;101458.72;6266370;22;49681;-78
2022/10/13 17:08:55;;;;;;;;;10.00;10.00;;;;;16.60;83.56;101453.41;6264124;22;49808;-79
2022/10/13 17:11:24;;;;;;;;;9.00;9.00;;;;;16.60;83.35;101448.13;6266825;22;50134;-74